Time;durP1;ratioP1;P1;durP2;ratioP2;P2;SDS_P1;SDS_P2;PMS_P1;PMS_P2;Temp;Humidity;BMP_temperature;BMP_pressure;BME280_temperature;BME280_humidity;BME280_pressure;Samples;Min_cycle;Max_cycle;Signal;HPM_P1;HPM_P2
2022/12/04 00:01:25;;;;;;;23.00;13.50;;;2.70;99.90;;;;;;5016352;28;20200;-84
2022/12/04 00:03:59;;;;;;;22.95;13.30;;;2.70;99.90;;;;;;5016508;28;20189;-84
2022/12/04 00:06:25;;;;;;;20.08;12.02;;;2.70;99.90;;;;;;5017039;28;20222;-84
2022/12/04 00:08:52;;;;;;;20.30;11.52;;;2.70;99.90;;;;;;5016681;28;20198;-83
2022/12/04 00:11:20;;;;;;;24.48;13.25;;;2.60;99.90;;;;;;5000562;28;20239;-83
2022/12/04 00:13:47;;;;;;;18.45;12.30;;;2.70;99.90;;;;;;5019253;28;20194;-84
2022/12/04 00:16:22;;;;;;;21.92;13.38;;;2.70;99.90;;;;;;5020234;28;20268;-83
2022/12/04 00:18:48;;;;;;;22.60;13.15;;;2.70;99.90;;;;;;5020639;28;20179;-83
2022/12/04 00:21:15;;;;;;;20.42;12.20;;;2.60;99.90;;;;;;5004001;28;20192;-83
2022/12/04 00:23:41;;;;;;;21.23;13.00;;;2.70;99.90;;;;;;5020647;28;20186;-83
2022/12/04 00:26:17;;;;;;;24.27;13.63;;;2.70;99.90;;;;;;5019532;28;20226;-83
2022/12/04 00:28:43;;;;;;;22.08;13.50;;;2.70;99.90;;;;;;5020358;28;20173;-83
2022/12/04 00:31:13;;;;;;;27.77;14.35;;;2.70;99.90;;;;;;5019857;28;20178;-83
2022/12/04 00:33:38;;;;;;;21.70;13.55;;;2.70;99.90;;;;;;5019731;28;20188;-84
2022/12/04 00:36:07;;;;;;;21.73;13.00;;;2.70;99.90;;;;;;5003585;28;20614;-83
2022/12/04 00:38:34;;;;;;;22.05;14.77;;;2.70;99.90;;;;;;5020107;28;20181;-83
2022/12/04 00:40:59;;;;;;;24.30;13.88;;;2.70;99.90;;;;;;5037202;28;20228;-83
2022/12/04 00:43:26;;;;;;;22.00;13.87;;;2.70;99.90;;;;;;5003693;28;20186;-83
2022/12/04 00:45:52;;;;;;;26.10;13.90;;;2.60;99.90;;;;;;5019811;28;20206;-83
2022/12/04 00:48:17;;;;;;;21.17;13.47;;;2.70;99.90;;;;;;5019658;28;20547;-84
2022/12/04 00:50:43;;;;;;;24.83;12.13;;;2.70;99.90;;;;;;5019912;28;20190;-83
2022/12/04 00:53:09;;;;;;;25.80;14.80;;;2.70;99.90;;;;;;5037853;28;20190;-83
2022/12/04 00:55:39;;;;;;;23.87;13.30;;;2.70;99.90;;;;;;5019466;28;20185;-83
2022/12/04 00:58:06;;;;;;;23.02;12.88;;;2.70;99.90;;;;;;5019784;28;20423;-83
2022/12/04 01:00:33;;;;;;;24.17;13.30;;;2.70;99.90;;;;;;5019999;28;20189;-83
2022/12/04 01:02:59;;;;;;;21.35;12.75;;;2.70;99.90;;;;;;5019710;28;20645;-83
2022/12/04 01:05:24;;;;;;;22.97;13.23;;;2.70;99.90;;;;;;5003023;28;20206;-83
2022/12/04 01:07:50;;;;;;;24.43;14.00;;;2.70;99.90;;;;;;5019345;28;20714;-83
2022/12/04 01:10:16;;;;;;;24.97;13.60;;;2.70;99.90;;;;;;4986827;28;20208;-83
2022/12/04 01:12:41;;;;;;;21.47;13.13;;;2.70;99.90;;;;;;4987050;28;20181;-83
2022/12/04 01:15:07;;;;;;;21.60;13.70;;;2.70;99.90;;;;;;5023196;28;20634;-83
2022/12/04 01:17:33;;;;;;;23.95;12.88;;;2.70;99.90;;;;;;5007121;28;20190;-83
2022/12/04 01:19:58;;;;;;;21.37;13.50;;;2.70;99.90;;;;;;5019654;28;20193;-83
2022/12/04 01:22:24;;;;;;;23.20;13.33;;;2.70;99.90;;;;;;5007821;28;20190;-83
2022/12/04 01:24:50;;;;;;;24.40;13.10;;;2.70;99.90;;;;;;5039274;28;20562;-83
2022/12/04 01:27:15;;;;;;;24.60;12.43;;;2.60;99.90;;;;;;5006258;28;20192;-83
2022/12/04 01:29:41;;;;;;;25.50;14.80;;;2.60;99.90;;;;;;4986868;28;20219;-82
2022/12/04 01:32:06;;;;;;;26.33;13.60;;;2.60;99.90;;;;;;4986705;28;20545;-83
2022/12/04 01:34:32;;;;;;;27.67;14.60;;;2.60;99.90;;;;;;5020145;28;20185;-82
2022/12/04 01:36:57;;;;;;;25.50;14.70;;;2.60;99.90;;;;;;5002975;28;20193;-83
2022/12/04 01:39:23;;;;;;;22.47;12.97;;;2.70;99.90;;;;;;5018969;28;20189;-83
2022/12/04 01:41:49;;;;;;;21.07;12.93;;;2.60;99.90;;;;;;5002673;28;20182;-83
2022/12/04 01:44:24;;;;;;;21.47;12.17;;;2.70;99.90;;;;;;4986308;28;20184;-83
2022/12/04 01:46:52;;;;;;;21.73;12.43;;;2.70;99.90;;;;;;5018903;28;20223;-83
2022/12/04 01:49:29;;;;;;;21.63;12.32;;;2.70;99.90;;;;;;5036412;28;20308;-83
2022/12/04 01:52:02;;;;;;;23.25;12.95;;;2.70;99.90;;;;;;5018769;28;20213;-83
2022/12/04 01:54:33;;;;;;;18.88;12.48;;;2.60;99.90;;;;;;5018677;28;20182;-83
2022/12/04 01:57:17;;;;;;;22.27;13.15;;;2.70;99.90;;;;;;5018368;28;20185;-83
2022/12/04 02:00:05;;;;;;;19.85;11.38;;;2.60;99.90;;;;;;5017984;28;20195;-82
2022/12/04 02:02:42;;;;;;;22.80;12.18;;;2.60;99.90;;;;;;5018457;28;20188;-83
2022/12/04 02:05:11;;;;;;;26.60;13.05;;;2.60;99.90;;;;;;5017889;28;20209;-83
2022/12/04 02:07:38;;;;;;;23.65;13.40;;;2.60;99.90;;;;;;5036516;28;20742;-83
2022/12/04 02:10:07;;;;;;;21.77;12.98;;;2.60;99.90;;;;;;5018493;28;20192;-82
2022/12/04 02:13:05;;;;;;;23.83;13.60;;;2.50;99.90;;;;;;5017851;28;20185;-83
2022/12/04 02:15:44;;;;;;;21.88;12.75;;;2.60;99.90;;;;;;5018464;28;20242;-83
2022/12/04 02:18:50;;;;;;;19.02;11.50;;;2.60;99.90;;;;;;5018065;28;20180;-83
2022/12/04 02:21:35;;;;;;;23.40;12.00;;;2.50;99.90;;;;;;5035658;28;20563;-83
2022/12/04 02:24:32;;;;;;;19.90;11.85;;;2.60;99.90;;;;;;5017929;28;20505;-83
2022/12/04 02:27:17;;;;;;;19.05;10.95;;;2.60;99.90;;;;;;5035522;28;20212;-82
2022/12/04 02:30:08;;;;;;;22.13;11.80;;;2.60;99.90;;;;;;5034975;28;20206;-83
2022/12/04 02:33:09;;;;;;;22.52;12.38;;;2.60;99.90;;;;;;5017732;28;20276;-83
2022/12/04 02:35:56;;;;;;;19.38;12.07;;;2.60;99.90;;;;;;5014045;28;20281;-83
2022/12/04 02:38:39;;;;;;;21.27;12.75;;;2.60;99.90;;;;;;5035733;28;20173;-83
2022/12/04 02:41:14;;;;;;;19.75;10.88;;;2.60;99.90;;;;;;5034952;28;20635;-82
2022/12/04 02:43:44;;;;;;;18.25;11.60;;;2.60;99.90;;;;;;5034934;28;20193;-83
2022/12/04 02:46:17;;;;;;;20.40;11.60;;;2.60;99.90;;;;;;5034852;28;20205;-82
2022/12/04 02:48:45;;;;;;;19.27;10.80;;;2.60;99.90;;;;;;5035217;28;20173;-83
2022/12/04 02:51:14;;;;;;;19.48;10.27;;;2.60;99.90;;;;;;5035442;28;20174;-83
2022/12/04 02:53:48;;;;;;;18.25;10.82;;;2.50;99.90;;;;;;5017447;28;20185;-83
2022/12/04 02:56:22;;;;;;;19.55;11.32;;;2.60;99.90;;;;;;5035165;28;20163;-82
2022/12/04 02:58:58;;;;;;;16.88;10.75;;;2.60;99.90;;;;;;5017603;28;20207;-83
2022/12/04 03:01:29;;;;;;;17.77;10.27;;;2.60;99.90;;;;;;5035244;28;20169;-83
2022/12/04 03:04:08;;;;;;;16.67;10.85;;;2.60;99.90;;;;;;5035338;28;20161;-82
2022/12/04 03:06:38;;;;;;;19.40;10.95;;;2.60;99.90;;;;;;5034954;28;20194;-82
2022/12/04 03:09:23;;;;;;;18.17;9.50;;;2.60;99.90;;;;;;5016945;28;20626;-82
2022/12/04 03:11:54;;;;;;;17.55;10.15;;;2.60;99.90;;;;;;5016914;28;20182;-83
2022/12/04 03:14:30;;;;;;;15.52;9.70;;;2.50;99.90;;;;;;5034204;28;20216;-82
2022/12/04 03:17:02;;;;;;;20.63;10.80;;;2.50;99.90;;;;;;5017468;28;20194;-83
2022/12/04 03:19:36;;;;;;;15.80;10.10;;;2.60;99.90;;;;;;5034739;28;20212;-83
2022/12/04 03:22:06;;;;;;;15.57;8.90;;;2.50;99.90;;;;;;5034432;28;20515;-82
2022/12/04 03:24:37;;;;;;;17.50;9.85;;;2.50;99.90;;;;;;5017122;28;20178;-82
2022/12/04 03:27:29;;;;;;;17.95;9.63;;;2.40;99.90;;;;;;5016881;28;20213;-82
2022/12/04 03:30:06;;;;;;;15.02;9.00;;;2.50;99.90;;;;;;5017255;28;20597;-83
2022/12/04 03:32:50;;;;;;;14.80;9.15;;;2.50;99.90;;;;;;5017481;28;20184;-83
2022/12/04 03:35:32;;;;;;;14.13;9.13;;;2.50;99.90;;;;;;5034739;28;20181;-82
2022/12/04 03:38:11;;;;;;;15.75;9.00;;;2.50;99.90;;;;;;5034803;28;20528;-82
2022/12/04 03:40:44;;;;;;;15.20;8.10;;;2.50;99.90;;;;;;5034283;28;20658;-82
2022/12/04 03:43:19;;;;;;;14.30;8.57;;;2.40;99.90;;;;;;5001066;28;20185;-82
2022/12/04 03:46:02;;;;;;;14.95;8.30;;;2.40;99.90;;;;;;5017256;28;20236;-83
2022/12/04 03:48:37;;;;;;;13.95;8.27;;;2.40;99.90;;;;;;5019217;28;20249;-82
2022/12/04 03:51:28;;;;;;;11.68;7.65;;;2.40;99.90;;;;;;5038554;28;20164;-82
2022/12/04 03:53:55;;;;;;;15.13;9.40;;;2.40;99.90;;;;;;5021260;28;20573;-82
2022/12/04 03:56:25;;;;;;;14.00;8.52;;;2.40;99.90;;;;;;5020503;28;20188;-82
2022/12/04 03:58:58;;;;;;;10.60;7.32;;;2.40;99.90;;;;;;5021015;28;20196;-82
2022/12/04 04:01:29;;;;;;;14.48;8.75;;;2.40;99.90;;;;;;5020884;28;20177;-82
2022/12/04 04:03:57;;;;;;;11.80;8.07;;;2.40;99.90;;;;;;5021100;28;20264;-82
2022/12/04 04:06:35;;;;;;;14.85;8.68;;;2.40;99.90;;;;;;5038497;28;20232;-82
2022/12/04 04:09:12;;;;;;;13.27;8.27;;;2.40;99.90;;;;;;5020941;28;20196;-82
2022/12/04 04:11:47;;;;;;;15.07;8.60;;;2.40;99.90;;;;;;5038576;28;20162;-82
2022/12/04 04:26:01;;;;;;;16.83;9.00;;;2.30;99.90;;;;;;5023306;28;20340;-83
2022/12/04 04:28:35;;;;;;;13.25;8.85;;;2.30;99.90;;;;;;5003591;28;20634;-82
2022/12/04 04:31:30;;;;;;;14.38;8.98;;;2.30;99.90;;;;;;5037607;28;20181;-82
2022/12/04 04:34:18;;;;;;;15.18;10.23;;;2.30;99.90;;;;;;5011380;28;20189;-82
2022/12/04 04:37:16;;;;;;;13.65;9.30;;;2.30;99.90;;;;;;5020342;28;20193;-82
2022/12/04 04:40:05;;;;;;;10.88;8.30;;;2.30;99.90;;;;;;4976964;28;20213;-82
2022/12/04 04:42:44;;;;;;;13.88;8.98;;;2.30;99.90;;;;;;5019860;28;20184;-83
2022/12/04 04:45:43;;;;;;;17.20;10.35;;;2.20;99.90;;;;;;5019414;28;20211;-82
2022/12/04 04:48:32;;;;;;;15.18;9.50;;;2.20;99.90;;;;;;5019923;28;20209;-83
2022/12/04 04:50:59;;;;;;;16.17;10.38;;;2.10;99.90;;;;;;5037518;28;20268;-82
2022/12/04 04:53:33;;;;;;;18.35;11.30;;;2.10;99.90;;;;;;5037365;28;20184;-82
2022/12/04 04:55:59;;;;;;;14.65;10.02;;;2.20;99.90;;;;;;5020192;28;20652;-82
2022/12/04 04:58:25;;;;;;;14.38;9.05;;;2.10;99.90;;;;;;5002949;28;20623;-82
2022/12/04 05:01:12;;;;;;;17.03;10.37;;;2.20;99.90;;;;;;5018591;28;20189;-82
2022/12/04 05:03:38;;;;;;;14.45;9.60;;;2.20;99.90;;;;;;5019620;28;20260;-82
2022/12/04 05:06:05;;;;;;;13.43;9.43;;;2.20;99.90;;;;;;5002973;28;20646;-82
2022/12/04 05:08:31;;;;;;;20.08;11.27;;;2.20;99.90;;;;;;5002890;28;20242;-82
2022/12/04 05:10:56;;;;;;;15.53;9.57;;;2.20;99.90;;;;;;5019271;28;20656;-82
2022/12/04 05:13:22;;;;;;;15.33;8.57;;;2.20;99.90;;;;;;5019085;28;20424;-83
2022/12/04 05:16:03;;;;;;;16.47;9.87;;;2.30;99.90;;;;;;5037155;28;20181;-82
2022/12/04 05:18:29;;;;;;;14.68;9.70;;;2.20;99.90;;;;;;5019253;28;20228;-83
2022/12/04 05:20:55;;;;;;;17.07;10.10;;;2.20;99.90;;;;;;5002546;28;20186;-82
2022/12/04 05:23:21;;;;;;;13.67;8.90;;;2.20;99.90;;;;;;5018747;28;20459;-82
2022/12/04 05:25:47;;;;;;;12.95;8.70;;;2.20;99.90;;;;;;5002952;28;20486;-82
2022/12/04 05:28:13;;;;;;;15.23;9.57;;;2.20;99.90;;;;;;4986276;28;20190;-82
2022/12/04 05:30:38;;;;;;;14.20;9.10;;;2.10;99.90;;;;;;5019047;28;20178;-82
2022/12/04 05:33:04;;;;;;;14.03;9.40;;;2.20;99.90;;;;;;5003235;28;20186;-82
2022/12/04 05:35:30;;;;;;;11.90;8.80;;;2.20;99.90;;;;;;5018150;28;20189;-82
2022/12/04 05:37:55;;;;;;;12.73;8.80;;;2.10;99.90;;;;;;5019103;28;20618;-83
2022/12/04 05:40:21;;;;;;;15.90;9.57;;;2.10;99.90;;;;;;5002243;28;20280;-83
2022/12/04 05:42:46;;;;;;;16.27;8.70;;;2.20;99.90;;;;;;5002752;28;20185;-82
2022/12/04 05:45:12;;;;;;;13.07;8.30;;;2.20;99.90;;;;;;5035817;28;20213;-82
2022/12/04 05:47:42;;;;;;;13.53;8.53;;;2.20;99.90;;;;;;5002831;28;20178;-82
2022/12/04 05:50:11;;;;;;;13.60;8.15;;;2.20;99.90;;;;;;5036290;28;20180;-82
2022/12/04 05:52:36;;;;;;;15.45;8.98;;;2.10;99.90;;;;;;5018736;28;20190;-83
2022/12/04 05:55:02;;;;;;;17.40;9.53;;;2.10;99.90;;;;;;5018728;28;20213;-83
2022/12/04 05:57:28;;;;;;;13.57;9.32;;;2.10;99.90;;;;;;5017683;28;20424;-82
2022/12/04 05:59:54;;;;;;;15.17;9.47;;;2.10;99.90;;;;;;5035720;28;20542;-82
2022/12/04 06:02:19;;;;;;;14.30;8.67;;;2.00;99.90;;;;;;5036092;28;20178;-82
2022/12/04 06:04:45;;;;;;;11.10;8.30;;;2.00;99.90;;;;;;5018231;28;20215;-84
2022/12/04 06:07:10;;;;;;;12.63;9.13;;;2.00;99.90;;;;;;4997767;28;20226;-83
2022/12/04 06:09:36;;;;;;;15.50;9.13;;;2.00;99.90;;;;;;5015411;28;20604;-83
2022/12/04 06:12:04;;;;;;;11.95;7.85;;;2.00;99.90;;;;;;5014434;28;20670;-83
2022/12/04 06:14:30;;;;;;;15.05;8.45;;;2.00;99.90;;;;;;4998312;28;20654;-83
2022/12/04 06:16:55;;;;;;;15.53;8.93;;;1.90;99.90;;;;;;5014992;28;20189;-82
2022/12/04 06:19:22;;;;;;;11.20;7.20;;;2.00;99.90;;;;;;5014516;28;20182;-82
2022/12/04 06:21:50;;;;;;;12.13;8.27;;;2.00;99.90;;;;;;5016041;28;20225;-83
2022/12/04 06:24:19;;;;;;;11.02;7.60;;;2.00;99.90;;;;;;5014391;28;20182;-83
2022/12/04 06:26:45;;;;;;;15.48;8.77;;;2.00;99.90;;;;;;5014829;28;20677;-83
2022/12/04 06:29:11;;;;;;;12.35;8.23;;;2.00;99.90;;;;;;5014213;28;20198;-82
2022/12/04 06:31:38;;;;;;;12.57;8.77;;;2.00;99.90;;;;;;5015262;28;20179;-83
2022/12/04 06:34:04;;;;;;;13.40;8.80;;;2.00;99.90;;;;;;4998738;28;20539;-83
2022/12/04 06:36:30;;;;;;;13.10;7.75;;;2.00;99.90;;;;;;5014188;28;20321;-83
2022/12/04 06:38:56;;;;;;;13.40;9.07;;;2.00;99.90;;;;;;5014464;28;20206;-83
2022/12/04 06:41:23;;;;;;;12.20;7.57;;;2.00;99.90;;;;;;5015604;28;20194;-84
2022/12/04 06:43:50;;;;;;;12.27;7.70;;;1.90;99.90;;;;;;5014531;28;20190;-83
2022/12/04 06:46:22;;;;;;;16.42;8.95;;;2.00;99.90;;;;;;5014240;28;20271;-83
2022/12/04 06:48:47;;;;;;;13.63;8.15;;;1.90;99.90;;;;;;5014242;28;20179;-83
2022/12/04 06:51:16;;;;;;;11.27;7.77;;;2.00;99.90;;;;;;5015018;28;20271;-83
2022/12/04 06:53:42;;;;;;;8.88;6.25;;;2.00;99.90;;;;;;5015376;28;20176;-83
2022/12/04 06:56:11;;;;;;;11.50;6.77;;;1.90;99.90;;;;;;5014427;28;20240;-83
2022/12/04 06:58:37;;;;;;;11.98;7.68;;;2.00;99.90;;;;;;5015651;28;20437;-83
2022/12/04 07:01:11;;;;;;;10.90;7.27;;;1.90;99.90;;;;;;4981985;28;20190;-83
2022/12/04 07:03:37;;;;;;;13.27;7.93;;;2.00;99.90;;;;;;5013871;28;20479;-83
2022/12/04 07:06:13;;;;;;;10.20;7.40;;;2.00;99.90;;;;;;5015036;28;20684;-83
2022/12/04 07:08:39;;;;;;;11.10;7.53;;;2.00;99.90;;;;;;5033760;28;20852;-83
2022/12/04 07:11:05;;;;;;;12.93;7.68;;;2.00;99.90;;;;;;5017517;28;20216;-83
2022/12/04 07:13:31;;;;;;;10.10;7.80;;;2.00;99.90;;;;;;4984086;28;20184;-83
2022/12/04 07:15:59;;;;;;;11.27;7.20;;;1.90;99.90;;;;;;4985014;28;20193;-83
2022/12/04 07:18:25;;;;;;;13.65;8.52;;;1.90;99.90;;;;;;5016853;28;20195;-83
2022/12/04 07:20:51;;;;;;;12.70;8.37;;;1.90;99.90;;;;;;5017323;28;20539;-83
2022/12/04 07:23:17;;;;;;;11.90;8.10;;;1.90;99.90;;;;;;4983541;28;20429;-83
2022/12/04 07:25:42;;;;;;;11.10;7.67;;;1.90;99.90;;;;;;5017340;28;20241;-83
2022/12/04 07:28:08;;;;;;;12.97;9.13;;;1.90;99.90;;;;;;5000652;28;20208;-82
2022/12/04 07:30:36;;;;;;;13.13;7.90;;;1.90;99.90;;;;;;5016665;28;20236;-83
2022/12/04 07:33:02;;;;;;;14.18;8.20;;;1.90;99.90;;;;;;5016684;28;20181;-82
2022/12/04 07:35:27;;;;;;;16.03;9.50;;;1.90;99.90;;;;;;5000719;28;20633;-82
2022/12/04 07:37:53;;;;;;;13.53;9.27;;;1.90;99.90;;;;;;5000397;28;20215;-83
2022/12/04 07:40:18;;;;;;;11.10;8.03;;;1.90;99.90;;;;;;5000845;28;20212;-83
2022/12/04 07:42:44;;;;;;;13.43;8.73;;;1.90;99.90;;;;;;5000617;28;20584;-83
2022/12/04 07:45:10;;;;;;;11.50;7.77;;;1.90;99.90;;;;;;5016913;28;20545;-82
2022/12/04 07:47:35;;;;;;;11.00;8.27;;;1.90;99.90;;;;;;5016305;28;20242;-83
2022/12/04 07:50:02;;;;;;;13.97;8.90;;;1.90;99.90;;;;;;5016699;28;20192;-83
2022/12/04 07:52:28;;;;;;;13.10;8.57;;;1.90;99.90;;;;;;5016755;28;20182;-82
2022/12/04 07:54:53;;;;;;;13.53;8.93;;;1.90;99.90;;;;;;5034575;28;20192;-82
2022/12/04 07:57:19;;;;;;;14.47;9.00;;;1.80;99.90;;;;;;5000273;28;20215;-83
2022/12/04 07:59:44;;;;;;;10.87;7.83;;;1.80;99.90;;;;;;5016827;28;20657;-82
2022/12/04 08:02:11;;;;;;;14.73;8.30;;;1.80;99.90;;;;;;5000540;28;20578;-83
2022/12/04 08:04:37;;;;;;;12.50;8.57;;;1.80;99.90;;;;;;5000325;28;20779;-82
2022/12/04 08:07:03;;;;;;;14.60;8.63;;;1.70;99.90;;;;;;5012338;28;20245;-82
2022/12/04 08:09:28;;;;;;;15.53;10.33;;;1.70;99.90;;;;;;4995151;28;20686;-82
2022/12/04 08:11:54;;;;;;;13.70;9.10;;;1.70;99.90;;;;;;4995764;28;20189;-81
2022/12/04 08:14:20;;;;;;;13.90;8.97;;;1.60;99.90;;;;;;5015546;28;20177;-82
2022/12/04 08:16:48;;;;;;;11.32;8.13;;;1.60;99.90;;;;;;5016590;28;20191;-83
2022/12/04 08:19:13;;;;;;;12.65;8.27;;;1.70;99.90;;;;;;5034414;28;20251;-82
2022/12/04 08:21:39;;;;;;;13.47;8.80;;;1.70;99.90;;;;;;4999846;28;20213;-81
2022/12/04 08:24:05;;;;;;;13.77;9.10;;;1.70;99.90;;;;;;5034073;28;20272;-84
2022/12/04 08:26:32;;;;;;;13.07;8.57;;;1.60;99.90;;;;;;4999513;28;20212;-83
2022/12/04 08:29:00;;;;;;;13.43;8.43;;;1.70;99.90;;;;;;5016699;28;20431;-82
2022/12/04 08:31:27;;;;;;;10.82;8.02;;;1.70;99.90;;;;;;5016175;28;20542;-83
2022/12/04 08:33:55;;;;;;;12.05;7.28;;;1.70;99.90;;;;;;5035060;28;20208;-83
2022/12/04 08:36:21;;;;;;;12.63;7.65;;;1.70;99.90;;;;;;5019820;28;20181;-83
2022/12/04 08:38:47;;;;;;;10.88;7.55;;;1.70;99.90;;;;;;5003688;28;20669;-83
2022/12/04 08:41:15;;;;;;;12.90;8.63;;;1.70;99.90;;;;;;5020264;28;20185;-83
2022/12/04 08:43:41;;;;;;;13.75;7.38;;;1.70;99.90;;;;;;5019566;28;20934;-83
2022/12/04 08:46:09;;;;;;;11.20;7.40;;;1.70;99.90;;;;;;4987450;28;20209;-83
2022/12/04 08:48:35;;;;;;;13.05;8.40;;;1.70;99.90;;;;;;5019426;28;20193;-83
2022/12/04 08:51:03;;;;;;;12.27;7.63;;;1.70;99.90;;;;;;5037630;28;20182;-83
2022/12/04 08:53:29;;;;;;;10.55;7.32;;;1.70;99.90;;;;;;4988149;28;20188;-82
2022/12/04 08:55:55;;;;;;;10.68;8.00;;;1.70;99.90;;;;;;5037083;28;20212;-83
2022/12/04 08:58:21;;;;;;;14.70;8.73;;;1.70;99.90;;;;;;5036682;28;20184;-83
2022/12/04 09:00:47;;;;;;;10.60;8.52;;;1.70;99.90;;;;;;5019958;28;20603;-83
2022/12/04 09:03:15;;;;;;;12.05;9.10;;;1.70;99.90;;;;;;5003559;28;20189;-83
2022/12/04 09:05:42;;;;;;;12.45;7.90;;;1.70;99.90;;;;;;5019262;28;20296;-83
2022/12/04 09:08:07;;;;;;;13.80;8.85;;;1.60;99.90;;;;;;5019138;28;20316;-82
2022/12/04 09:10:34;;;;;;;10.70;6.93;;;1.70;99.90;;;;;;5002825;28;20609;-83
2022/12/04 09:13:00;;;;;;;12.70;8.32;;;1.80;99.90;;;;;;5019512;28;20256;-83
2022/12/04 09:15:26;;;;;;;12.80;7.93;;;1.70;99.90;;;;;;5018956;28;20212;-83
2022/12/04 09:17:51;;;;;;;11.73;7.40;;;1.80;99.90;;;;;;5037549;28;20442;-82
2022/12/04 09:20:17;;;;;;;15.37;9.50;;;1.80;99.90;;;;;;5037061;28;20210;-83
2022/12/04 09:22:43;;;;;;;13.70;7.90;;;1.70;99.90;;;;;;4986434;28;20189;-83
2022/12/04 09:25:10;;;;;;;12.00;7.80;;;1.70;99.90;;;;;;5036691;28;20738;-83
2022/12/04 09:27:37;;;;;;;12.30;7.05;;;1.60;99.90;;;;;;5002722;28;20320;-83
2022/12/04 09:30:07;;;;;;;10.55;7.78;;;1.60;99.90;;;;;;5036470;28;20193;-83
2022/12/04 09:32:32;;;;;;;11.60;8.32;;;1.70;99.90;;;;;;5002532;28;20189;-83
2022/12/04 09:34:58;;;;;;;10.77;8.40;;;1.70;99.90;;;;;;4986473;28;20193;-83
2022/12/04 09:37:23;;;;;;;13.87;8.30;;;1.70;99.90;;;;;;5018979;28;20173;-83
2022/12/04 09:39:49;;;;;;;12.37;8.23;;;1.70;99.90;;;;;;5018971;28;20185;-83
2022/12/04 09:42:28;;;;;;;15.00;9.93;;;1.70;99.90;;;;;;5036526;28;20276;-82
2022/12/04 09:45:15;;;;;;;13.88;9.20;;;1.80;99.90;;;;;;5036422;28;20414;-83
2022/12/04 09:47:47;;;;;;;15.35;9.40;;;1.70;99.90;;;;;;5018710;28;20269;-83
2022/12/04 09:50:21;;;;;;;14.27;11.10;;;1.70;99.90;;;;;;5019089;28;20232;-83
2022/12/04 09:53:01;;;;;;;13.98;9.43;;;1.80;99.90;;;;;;5018807;28;20181;-83
2022/12/04 09:55:39;;;;;;;13.35;9.02;;;1.80;99.90;;;;;;5036258;28;20174;-83
2022/12/04 09:58:12;;;;;;;14.80;9.63;;;1.90;99.90;;;;;;5036460;28;20269;-83
2022/12/04 10:00:42;;;;;;;15.48;9.40;;;1.90;99.90;;;;;;5036217;28;20601;-83
2022/12/04 10:03:14;;;;;;;14.95;8.73;;;2.00;99.90;;;;;;5018832;28;20268;-83
2022/12/04 10:06:10;;;;;;;15.02;9.18;;;2.00;99.90;;;;;;5035787;28;20210;-83
2022/12/04 10:08:41;;;;;;;15.48;9.38;;;1.90;99.90;;;;;;5035453;28;20318;-83
2022/12/04 10:11:15;;;;;;;13.82;8.77;;;2.00;99.90;;;;;;5018197;28;20269;-83
2022/12/04 10:14:10;;;;;;;15.57;8.35;;;2.00;99.90;;;;;;5017805;28;20234;-82
2022/12/04 10:16:56;;;;;;;13.13;8.45;;;2.00;99.90;;;;;;4987178;28;20568;-83
2022/12/04 10:19:38;;;;;;;12.88;8.65;;;2.00;99.90;;;;;;5018161;28;20169;-83
2022/12/04 10:22:22;;;;;;;13.30;9.25;;;2.00;99.90;;;;;;5035646;28;20568;-83
2022/12/04 10:24:52;;;;;;;18.52;10.18;;;2.00;99.90;;;;;;5017757;28;20215;-83
2022/12/04 10:27:23;;;;;;;16.35;10.30;;;2.00;99.90;;;;;;5018069;28;20283;-83
2022/12/04 10:29:54;;;;;;;14.23;9.65;;;1.90;99.90;;;;;;5017619;28;20173;-83
2022/12/04 10:32:28;;;;;;;13.52;10.70;;;2.00;99.90;;;;;;5018413;28;20272;-83
2022/12/04 10:34:57;;;;;;;13.88;8.85;;;2.00;99.90;;;;;;5035085;28;20258;-82
2022/12/04 10:37:23;;;;;;;13.98;8.70;;;1.90;99.90;;;;;;5035334;28;20188;-83
2022/12/04 10:39:54;;;;;;;12.05;8.80;;;1.90;99.90;;;;;;5001305;28;20606;-83
2022/12/04 10:42:36;;;;;;;11.10;7.65;;;2.00;99.90;;;;;;5036018;28;20196;-82
2022/12/04 10:45:06;;;;;;;14.63;8.75;;;2.00;99.90;;;;;;5035392;28;20248;-82
2022/12/04 10:47:33;;;;;;;16.92;11.07;;;2.00;99.90;;;;;;5034952;28;20277;-83
2022/12/04 10:50:11;;;;;;;16.08;9.63;;;2.10;99.90;;;;;;5017800;28;20176;-83
2022/12/04 10:52:37;;;;;;;15.25;9.80;;;2.10;99.90;;;;;;5017510;28;20178;-83
2022/12/04 10:55:03;;;;;;;14.33;9.73;;;2.10;99.90;;;;;;5001311;28;20182;-83
2022/12/04 10:57:43;;;;;;;12.60;9.15;;;2.20;99.90;;;;;;5000515;28;20188;-83
2022/12/04 11:00:32;;;;;;;14.50;8.57;;;2.20;99.90;;;;;;5035833;28;20180;-83
2022/12/04 11:03:08;;;;;;;15.90;10.02;;;2.20;99.90;;;;;;5017106;28;20172;-82
2022/12/04 11:05:42;;;;;;;13.98;9.25;;;2.20;99.90;;;;;;5017013;28;20206;-82
2022/12/04 11:08:22;;;;;;;14.10;9.10;;;2.20;99.90;;;;;;5013724;28;20688;-82
2022/12/04 11:11:00;;;;;;;13.38;8.88;;;2.20;99.90;;;;;;5013734;28;20264;-82
2022/12/04 11:13:25;;;;;;;11.98;8.10;;;2.20;99.90;;;;;;5014273;28;20179;-83
2022/12/04 11:15:56;;;;;;;13.90;9.70;;;2.20;99.90;;;;;;5014271;28;20682;-82
2022/12/04 11:18:28;;;;;;;13.52;8.75;;;2.30;99.90;;;;;;5013873;28;20602;-82
2022/12/04 11:20:58;;;;;;;14.18;8.43;;;2.30;99.90;;;;;;5013926;28;20181;-81
2022/12/04 11:23:24;;;;;;;12.13;8.27;;;2.20;99.90;;;;;;5013827;28;20185;-82
2022/12/04 11:25:54;;;;;;;12.88;9.27;;;2.30;99.90;;;;;;5013354;28;20709;-83
2022/12/04 11:28:23;;;;;;;15.25;10.45;;;2.30;99.90;;;;;;5014024;28;20187;-81
2022/12/04 11:30:55;;;;;;;18.13;12.02;;;2.20;99.90;;;;;;5014665;28;20589;-82
2022/12/04 11:33:48;;;;;;;17.83;11.23;;;2.30;99.90;;;;;;5015247;28;20186;-82
2022/12/04 11:36:41;;;;;;;14.05;9.48;;;2.30;99.90;;;;;;5011745;28;20192;-82
2022/12/04 11:39:10;;;;;;;15.60;9.50;;;2.30;99.90;;;;;;5015684;28;20525;-82
2022/12/04 11:41:36;;;;;;;22.52;10.93;;;2.40;99.90;;;;;;5013684;28;20610;-82
2022/12/04 11:44:04;;;;;;;15.27;10.73;;;2.30;99.90;;;;;;5014009;28;20194;-82
2022/12/04 11:46:32;;;;;;;16.15;10.05;;;2.40;99.90;;;;;;5013085;28;20210;-82
2022/12/04 11:48:59;;;;;;;15.90;11.38;;;2.40;99.90;;;;;;5015011;28;20267;-83
2022/12/04 11:51:30;;;;;;;16.75;11.05;;;2.50;99.90;;;;;;4998006;28;20190;-82
2022/12/04 11:54:24;;;;;;;17.15;10.35;;;2.50;99.90;;;;;;5014886;28;20179;-82
2022/12/04 11:56:56;;;;;;;14.80;9.65;;;2.50;99.90;;;;;;5006773;28;20261;-83
2022/12/04 11:59:36;;;;;;;13.77;9.45;;;2.50;99.90;;;;;;5015193;28;20210;-82
2022/12/04 12:02:27;;;;;;;15.23;9.98;;;2.50;99.90;;;;;;5013570;28;20175;-82
2022/12/04 12:05:17;;;;;;;30.77;19.33;;;2.60;99.90;;;;;;5013010;28;20175;-82
2022/12/04 12:07:49;;;;;;;15.20;10.80;;;2.50;99.90;;;;;;5025273;28;20241;-83
2022/12/04 12:10:17;;;;;;;16.95;10.73;;;2.40;99.90;;;;;;5020225;28;20183;-82
2022/12/04 12:13:02;;;;;;;22.48;13.07;;;2.50;99.90;;;;;;5020729;28;20185;-83
2022/12/04 12:15:56;;;;;;;17.17;10.93;;;2.50;99.90;;;;;;5038819;28;20166;-82
2022/12/04 12:18:33;;;;;;;16.73;11.15;;;2.50;99.90;;;;;;5020808;28;20634;-82
2022/12/04 12:21:11;;;;;;;18.20;11.82;;;2.50;99.90;;;;;;5020652;28;20264;-82
2022/12/04 12:23:42;;;;;;;16.65;10.98;;;2.50;99.90;;;;;;5037811;28;20170;-82
2022/12/04 12:26:11;;;;;;;17.08;10.38;;;2.60;99.90;;;;;;5038384;28;20190;-82
2022/12/04 12:28:40;;;;;;;13.50;10.45;;;2.70;99.90;;;;;;5020031;28;20330;-81
2022/12/04 12:31:33;;;;;;;23.35;12.60;;;2.70;99.90;;;;;;5038272;28;20225;-81
2022/12/04 12:34:15;;;;;;;15.10;10.95;;;2.60;99.90;;;;;;5038792;28;20237;-82
2022/12/04 12:36:46;;;;;;;21.20;15.55;;;2.60;99.90;;;;;;5037752;28;20253;-82
2022/12/04 12:39:18;;;;;;;15.07;11.27;;;2.60;99.90;;;;;;5037765;28;20174;-82
2022/12/04 12:41:54;;;;;;;18.73;12.60;;;2.70;99.90;;;;;;5037352;28;20519;-82
2022/12/04 12:44:29;;;;;;;15.00;9.90;;;2.70;99.90;;;;;;5037867;28;20242;-82
2022/12/04 12:47:00;;;;;;;17.23;12.98;;;2.70;99.90;;;;;;5037209;28;20208;-82
2022/12/04 12:49:37;;;;;;;19.17;11.68;;;2.70;99.90;;;;;;5037329;28;20178;-82
2022/12/04 12:52:15;;;;;;;14.27;10.23;;;2.60;99.90;;;;;;5019738;28;20178;-82
2022/12/04 12:55:19;;;;;;;14.93;10.65;;;2.70;99.90;;;;;;5019905;28;20177;-82
2022/12/04 12:58:10;;;;;;;13.55;9.75;;;2.70;99.90;;;;;;5018242;28;20192;-82
2022/12/04 13:00:46;;;;;;;16.40;11.27;;;2.60;99.90;;;;;;5018950;28;20182;-82
2022/12/04 13:03:43;;;;;;;16.23;10.38;;;2.60;99.90;;;;;;5019391;28;20316;-82
2022/12/04 13:06:14;;;;;;;14.13;9.90;;;2.60;99.90;;;;;;5009115;28;20217;-82
2022/12/04 13:09:00;;;;;;;14.70;10.43;;;2.60;99.90;;;;;;5019063;28;20229;-81
2022/12/04 13:11:28;;;;;;;14.25;9.60;;;2.50;99.90;;;;;;5019451;28;20204;-82
2022/12/04 13:13:59;;;;;;;12.73;9.10;;;2.50;99.90;;;;;;5037144;28;20174;-82
2022/12/04 13:16:44;;;;;;;15.40;10.63;;;2.50;99.90;;;;;;5037372;28;20170;-82
2022/12/04 13:19:21;;;;;;;16.23;11.38;;;2.60;99.90;;;;;;5037528;28;20614;-83